Weather History for Walhalla, ND

Change the Weather History Date:

Saturday, May 17, 2014

  Actual Average (KGAF) Record (KGAF)
Temperature  
Mean Temperature 51 °F -  
Max Temperature 69 °F 73 °F 93 °F (1972)
Min Temperature 33 °F 45 °F 28 °F (1969)
Degree Days  
Heating Degree Days 14    
Growing Degree Days 1 (Base 50)    
Moisture  
Dew Point 29 °F    
Average Humidity 42    
Maximum Humidity 75    
Minimum Humidity 23    
Precipitation  
Precipitation 0.00 in - - ()
Sea Level Pressure  
Sea Level Pressure 29.93 in    
Wind  
Wind Speed 5 mph (NW)    
Max Wind Speed 18 mph    
Max Gust Speed 26 mph    
Visibility 10 miles    
Events      
Averages and records for this station are not official NWS values.
T = Trace of Precipitation, MM = Missing Value Source: NWS Daily Summary

Daily Weather History Graph

Daily Weather History Graph

Search for Another Location

Airport:

Trip Planner

Search our weather history database for the weather conditions in past years. The results will help you decide how hot, cold, wet, or windy it might be!

Date:

Astronomy

May. 17, 2014 Rise Set
Actual Time 5:46 AM CDT 9:09 PM CDT
Civil Twilight 5:08 AM CDT 9:48 PM CDT
Nautical Twilight 4:17 AM CDT 10:39 PM CDT
Astronomical Twilight 3:10 AM CDT 11:48 PM CDT
Moon No Moon Rise 8:32 AM CDT (5/17)
Length of Visible Light 16h 40m
Length of Day
15h 22m
Waning Gibbous, 89% of the Moon is Illuminated
May 17
Waning Gibbous
May 21
Last Quarter
May 28
New
Jun 5
First Quarter
Jun 12
Full

Hourly Weather History & Observations

Time (CDT) Temp. Windchill Dew Point Humidity Pressure Visibility Wind Dir Wind Speed Gust Speed Precip Events Conditions
12:15 AM 37.4 °F - 26.6 °F 65% 30.00 in 10.0 mi Calm Calm - N/A   Clear
12:35 AM 37.4 °F 32.8 °F 26.6 °F 65% 30.00 in 10.0 mi SW 5.8 mph - N/A   Clear
12:55 AM 37.4 °F 33.8 °F 28.4 °F 70% 29.99 in 10.0 mi SW 4.6 mph - N/A   Clear
1:15 AM 35.6 °F - 26.6 °F 70% 29.99 in 10.0 mi Calm Calm - N/A   Clear
1:35 AM 37.4 °F 33.8 °F 24.8 °F 60% 29.99 in 10.0 mi SW 4.6 mph - N/A   Clear
1:55 AM 37.4 °F - 24.8 °F 60% 29.99 in 10.0 mi Calm Calm - N/A   Clear
2:15 AM 35.6 °F 31.7 °F 24.8 °F 65% 29.99 in 10.0 mi SW 4.6 mph - N/A   Clear
2:55 AM 37.4 °F 34.9 °F 24.8 °F 60% 29.99 in 10.0 mi WSW 3.5 mph - N/A   Clear
3:15 AM 35.6 °F 29.9 °F 24.8 °F 65% 29.98 in 10.0 mi SSW 6.9 mph - N/A   Clear
3:35 AM 33.8 °F 28.6 °F 24.8 °F 70% 29.97 in 10.0 mi SW 5.8 mph - N/A   Clear
3:55 AM 35.6 °F 32.8 °F 24.8 °F 65% 29.97 in 10.0 mi SSW 3.5 mph - N/A   Clear
4:15 AM 35.6 °F 32.8 °F 24.8 °F 65% 29.97 in 10.0 mi SW 3.5 mph - N/A   Clear
4:35 AM 33.8 °F 30.8 °F 26.6 °F 75% 29.96 in 10.0 mi SW 3.5 mph - N/A   Clear
4:55 AM 35.6 °F 31.7 °F 26.6 °F 70% 29.96 in 10.0 mi SW 4.6 mph - N/A   Clear
5:15 AM 35.6 °F 31.7 °F 26.6 °F 70% 29.95 in 10.0 mi SW 4.6 mph - N/A   Unknown
5:35 AM 37.4 °F 33.8 °F 26.6 °F 65% 29.95 in 10.0 mi SSW 4.6 mph - N/A   Unknown
5:55 AM 35.6 °F - 26.6 °F 70% 29.95 in 10.0 mi Calm Calm - N/A   Unknown
6:15 AM 35.6 °F - 26.6 °F 70% 29.94 in 10.0 mi Calm Calm - N/A   Unknown
6:35 AM 41.0 °F 38.0 °F 26.6 °F 57% 29.93 in 10.0 mi WSW 4.6 mph - N/A   Unknown
7:15 AM 46.4 °F 43.5 °F 28.4 °F 50% 29.93 in 10.0 mi West 5.8 mph - N/A   Unknown
7:35 AM 48.2 °F - 28.4 °F 46% 29.93 in 10.0 mi WSW 6.9 mph - N/A   Unknown
7:55 AM 48.2 °F - 30.2 °F 50% 29.93 in 10.0 mi West 6.9 mph - N/A   Unknown
8:15 AM 50.0 °F - 32.0 °F 50% 29.93 in 10.0 mi WNW 5.8 mph - N/A   Unknown
8:55 AM 53.6 °F - 33.8 °F 47% 29.93 in 10.0 mi WNW 8.1 mph - N/A   Unknown
9:35 AM 55.4 °F - 35.6 °F 47% 29.93 in 10.0 mi NNW 10.4 mph 16.1 mph N/A   Unknown
9:55 AM 57.2 °F - 33.8 °F 41% 29.93 in 10.0 mi North 10.4 mph - N/A   Unknown
10:15 AM 59.0 °F - 32.0 °F 36% 29.93 in 10.0 mi North 11.5 mph - N/A   Unknown
10:35 AM 59.0 °F - 32.0 °F 36% 29.93 in 10.0 mi North 8.1 mph - N/A   Unknown
10:55 AM 59.0 °F - 32.0 °F 36% 29.93 in 10.0 mi North 10.4 mph - N/A   Unknown
11:15 AM 59.0 °F - 32.0 °F 36% 29.94 in 10.0 mi North 9.2 mph - N/A   Unknown
11:35 AM 60.8 °F - 32.0 °F 34% 29.94 in 10.0 mi North 10.4 mph - N/A   Unknown
11:55 AM 62.6 °F - 32.0 °F 32% 29.93 in 10.0 mi North 9.2 mph - N/A   Unknown
12:15 PM 62.6 °F - 32.0 °F 32% 29.93 in 10.0 mi North 6.9 mph - N/A   Unknown
12:35 PM 64.4 °F - 28.4 °F 26% 29.93 in 10.0 mi NNW 3.5 mph - N/A   Clear
1:15 PM 66.2 °F - 26.6 °F 23% 29.92 in 10.0 mi NW 16.1 mph 20.7 mph N/A   Clear
1:35 PM 66.2 °F - 26.6 °F 23% 29.92 in 10.0 mi North 11.5 mph - N/A   Clear
1:55 PM 66.2 °F - 26.6 °F 23% 29.92 in 10.0 mi North 10.4 mph 17.3 mph N/A   Clear
2:15 PM 66.2 °F - 26.6 °F 23% 29.91 in 10.0 mi NW 13.8 mph 18.4 mph N/A   Clear
2:35 PM 68.0 °F - 28.4 °F 23% 29.91 in 10.0 mi North 6.9 mph 21.9 mph N/A   Clear
2:55 PM 68.0 °F - 28.4 °F 23% 29.90 in 10.0 mi North 18.4 mph 21.9 mph N/A   Clear
3:15 PM 68.0 °F - 28.4 °F 23% 29.90 in 10.0 mi NNW 16.1 mph 25.3 mph N/A   Clear
3:35 PM 68.0 °F - 28.4 °F 23% 29.90 in 10.0 mi NNW 10.4 mph 17.3 mph N/A   Partly Cloudy
3:55 PM 68.0 °F - 28.4 °F 23% 29.90 in 10.0 mi NNW 12.7 mph 20.7 mph N/A   Partly Cloudy
4:15 PM 66.2 °F - 28.4 °F 24% 29.89 in 10.0 mi North 13.8 mph 26.5 mph N/A   Scattered Clouds
4:35 PM 69.8 °F - 30.2 °F 23% 29.89 in 10.0 mi North 13.8 mph 19.6 mph N/A   Scattered Clouds
4:55 PM 66.2 °F - 30.2 °F 26% 29.89 in 10.0 mi North 15.0 mph 18.4 mph N/A   Scattered Clouds
5:35 PM 68.0 °F - 30.2 °F 24% 29.89 in 10.0 mi NNE 6.9 mph - N/A   Unknown
5:55 PM 68.0 °F - 30.2 °F 24% 29.88 in 10.0 mi North 8.1 mph - N/A   Unknown
6:15 PM 68.0 °F - 30.2 °F 24% 29.88 in 10.0 mi North 9.2 mph - N/A   Unknown
6:35 PM 66.2 °F - 30.2 °F 26% 29.88 in 10.0 mi North 6.9 mph - N/A   Unknown
6:55 PM 66.2 °F - 30.2 °F 26% 29.88 in 10.0 mi NNE 3.5 mph - N/A   Unknown
7:15 PM 66.2 °F - 30.2 °F 26% 29.88 in 10.0 mi Calm Calm - N/A   Unknown
7:35 PM 66.2 °F - 28.4 °F 24% 29.89 in 10.0 mi Calm Calm - N/A   Unknown
7:55 PM 66.2 °F - 30.2 °F 26% 29.89 in 10.0 mi Calm Calm - N/A   Unknown
8:15 PM 66.2 °F - 28.4 °F 24% 29.89 in 10.0 mi North 4.6 mph - N/A   Unknown
8:35 PM 64.4 °F - 32.0 °F 30% 29.89 in 10.0 mi Calm Calm - N/A   Unknown
8:55 PM 64.4 °F - 32.0 °F 30% 29.89 in 10.0 mi SW 3.5 mph - N/A   Unknown
9:15 PM 62.6 °F - 32.0 °F 32% 29.89 in 10.0 mi West 4.6 mph - N/A   Unknown
9:35 PM 64.4 °F - 32.0 °F 30% 29.89 in 10.0 mi WNW 3.5 mph - N/A   Unknown
9:55 PM 62.6 °F - 32.0 °F 32% 29.89 in 10.0 mi Calm Calm - N/A   Unknown
10:15 PM 60.8 °F - 33.8 °F 36% 29.89 in 10.0 mi Calm Calm - N/A   Unknown
10:35 PM 59.0 °F - 35.6 °F 42% 29.90 in 10.0 mi North 8.1 mph - N/A   Unknown
10:55 PM 57.2 °F - 35.6 °F 44% 29.91 in 10.0 mi North 9.2 mph - N/A   Unknown
11:15 PM 55.4 °F - 35.6 °F 47% 29.92 in 10.0 mi NW 11.5 mph - N/A   Unknown
11:35 PM 53.6 °F - 35.6 °F 51% 29.92 in 10.0 mi NW 9.2 mph - N/A   Unknown
11:55 PM 51.8 °F - 35.6 °F 54% 29.93 in 10.0 mi NW 10.4 mph - N/A   Unknown